createdAt,value
2018-04-02T00:01:47.785Z,79.13
2018-04-02T00:04:13.878Z,86.70
2018-04-02T00:06:39.948Z,83.80
2018-04-02T00:09:06.018Z,84.50
2018-04-02T00:11:32.138Z,87.10
2018-04-02T00:13:58.294Z,81.67
2018-04-02T00:16:25.190Z,78.93
2018-04-02T00:18:51.199Z,78.90
2018-04-02T00:21:18.043Z,77.43
2018-04-02T00:23:44.874Z,80.53
2018-04-02T00:26:10.978Z,82.13
2018-04-02T00:28:37.074Z,79.67
2018-04-02T00:31:03.170Z,81.67
2018-04-02T00:33:29.296Z,80.17
2018-04-02T00:35:55.385Z,83.93
2018-04-02T00:38:21.493Z,85.10
2018-04-02T00:40:47.584Z,84.60
2018-04-02T00:43:13.707Z,83.50
2018-04-02T00:45:40.514Z,87.40
2018-04-02T00:48:06.610Z,83.20
2018-04-02T00:50:32.781Z,89.50
2018-04-02T00:52:58.878Z,89.60
2018-04-02T00:55:25.710Z,87.20
2018-04-02T00:57:51.830Z,87.60
2018-04-02T01:00:17.956Z,84.37
2018-04-02T01:02:44.087Z,90.33
2018-04-02T01:05:10.206Z,85.07
2018-04-02T01:07:37.152Z,88.90
2018-04-02T01:10:03.280Z,89.50
2018-04-02T01:12:29.409Z,87.53
2018-04-02T01:14:55.706Z,91.50
2018-04-02T01:17:21.791Z,91.30
2018-04-02T01:19:47.851Z,91.13
2018-04-02T01:22:14.674Z,88.07
2018-04-02T01:24:40.753Z,91.30
2018-04-02T01:27:06.847Z,94.70
2018-04-02T01:29:33.006Z,92.57
2018-04-02T01:31:59.868Z,93.77
2018-04-02T01:34:26.698Z,91.70
2018-04-02T01:36:52.833Z,96.47
2018-04-02T01:39:18.927Z,90.20
2018-04-02T01:41:45.054Z,93.53
2018-04-02T01:44:11.148Z,93.40
2018-04-02T01:46:37.254Z,103.10
2018-04-02T01:49:03.430Z,100.60
2018-04-02T01:51:29.532Z,95.83
2018-04-02T01:53:56.377Z,98.77
2018-04-02T01:56:22.475Z,103.37
2018-04-02T01:58:49.366Z,97.23
2018-04-02T02:01:15.491Z,99.70
2018-04-02T02:03:41.570Z,101.13
2018-04-02T02:06:07.703Z,98.10
2018-04-02T02:08:33.819Z,97.20
2018-04-02T02:10:59.902Z,102.47
2018-04-02T02:13:26.039Z,100.23
2018-04-02T02:15:52.151Z,103.03
2018-04-02T02:18:18.252Z,103.57
2018-04-02T02:20:45.116Z,103.53
2018-04-02T02:23:11.228Z,102.00
2018-04-02T02:25:37.338Z,96.77
2018-04-02T02:28:03.438Z,99.20
2018-04-02T02:30:29.616Z,98.03
2018-04-02T02:32:56.401Z,101.83
2018-04-02T02:35:23.226Z,107.17
2018-04-02T02:37:49.329Z,100.43
2018-04-02T02:40:15.407Z,101.83
2018-04-02T02:42:41.523Z,98.47
2018-04-02T02:45:07.677Z,102.17
2018-04-02T02:47:33.808Z,106.17
2018-04-02T02:49:59.899Z,99.57
2018-04-02T02:52:26.728Z,98.17
2018-04-02T02:54:52.824Z,95.37
2018-04-02T02:57:18.915Z,100.90
2018-04-02T02:59:45.006Z,99.00
2018-04-02T03:02:11.136Z,97.53
2018-04-02T03:04:37.250Z,93.23
2018-04-02T03:07:03.338Z,100.07
2018-04-02T03:09:29.489Z,102.90
2018-04-02T03:11:55.590Z,105.47
2018-04-02T03:14:22.440Z,104.00
2018-04-02T03:16:48.562Z,101.80
2018-04-02T03:19:14.689Z,105.10
2018-04-02T03:21:41.518Z,104.53
2018-04-02T03:24:07.608Z,102.73
2018-04-02T03:26:33.716Z,102.97
2018-04-02T03:29:00.555Z,99.23
2018-04-02T03:31:26.655Z,92.50
2018-04-02T03:33:52.796Z,98.60
2018-04-02T03:36:18.951Z,101.70
2018-04-02T03:38:45.051Z,95.93
2018-04-02T03:41:11.114Z,99.57
2018-04-02T03:43:37.266Z,98.93
2018-04-02T03:46:03.342Z,100.00
2018-04-02T03:57:37.603Z,90.50
2018-04-02T04:00:03.714Z,91.10
2018-04-02T04:02:30.582Z,101.33
2018-04-02T04:04:57.462Z,96.87
2018-04-02T04:07:23.628Z,92.93
2018-04-02T04:09:49.751Z,103.07
2018-04-02T04:12:15.869Z,102.87
2018-04-02T04:14:41.971Z,104.50
2018-04-02T04:17:08.129Z,102.10
2018-04-02T04:19:34.978Z,96.17
2018-04-02T04:22:01.818Z,99.17
2018-04-02T04:24:27.958Z,100.37
2018-04-02T04:26:54.102Z,99.37
2018-04-02T04:29:20.231Z,100.10
2018-04-02T04:31:46.324Z,101.90
2018-04-02T04:34:12.435Z,98.37
2018-04-02T04:36:38.576Z,96.13
2018-04-02T04:39:04.703Z,97.70
2018-04-02T04:41:31.543Z,97.37
2018-04-02T04:43:57.666Z,92.83
2018-04-02T04:46:23.838Z,96.60
2018-04-02T04:48:49.943Z,92.50
2018-04-02T04:51:16.018Z,92.77
2018-04-02T04:53:42.891Z,96.67
2018-04-02T04:56:08.994Z,90.17
2018-04-02T04:58:35.066Z,92.70
2018-04-02T05:01:01.142Z,92.17
2018-04-02T05:03:27.288Z,89.80
2018-04-02T05:05:53.446Z,89.40
2018-04-02T05:08:19.539Z,86.23
2018-04-02T05:10:45.669Z,85.07
2018-04-02T05:13:11.807Z,93.37
2018-04-02T05:15:37.911Z,84.27
2018-04-02T05:18:04.030Z,82.80
2018-04-02T05:20:30.134Z,85.07
2018-04-02T05:22:56.270Z,76.20
2018-04-02T05:25:22.374Z,85.40
2018-04-02T05:27:49.223Z,77.73
2018-04-02T05:30:16.423Z,75.40
2018-04-02T05:32:43.327Z,74.00
2018-04-02T05:35:09.445Z,79.50
2018-04-02T05:37:35.550Z,66.77
2018-04-02T05:40:01.651Z,70.80
2018-04-02T05:42:27.783Z,72.77
2018-04-02T05:44:53.899Z,69.37
2018-04-02T05:47:20.786Z,68.57
2018-04-02T05:49:47.647Z,70.57
2018-04-02T05:52:14.495Z,68.47
2018-04-02T05:54:40.657Z,67.57
2018-04-02T05:57:07.526Z,71.17
2018-04-02T05:59:33.666Z,66.03
2018-04-02T06:01:59.799Z,65.40
2018-04-02T06:04:25.907Z,69.10
2018-04-02T06:06:52.752Z,65.37
2018-04-02T06:09:18.931Z,64.97
2018-04-02T06:11:45.097Z,64.30
2018-04-02T06:14:11.170Z,69.37
2018-04-02T06:16:37.299Z,67.30
2018-04-02T06:19:03.412Z,62.03
2018-04-02T06:21:29.506Z,63.23
2018-04-02T06:23:55.652Z,62.80
2018-04-02T06:26:21.768Z,62.00
2018-04-02T06:28:48.634Z,60.03
2018-04-02T06:31:15.475Z,60.60
2018-04-02T06:33:41.567Z,60.07
2018-04-02T06:36:07.679Z,57.77
2018-04-02T06:38:33.818Z,56.70
2018-04-02T06:40:59.899Z,57.37
2018-04-02T06:43:26.292Z,59.37
2018-04-02T06:45:52.390Z,53.43
2018-04-02T06:48:18.540Z,57.70
2018-04-02T06:50:45.063Z,56.77
2018-04-02T06:53:11.156Z,56.97
2018-04-02T06:55:37.286Z,50.53
2018-04-02T06:58:04.191Z,52.33
2018-04-02T07:00:30.305Z,51.37
2018-04-02T07:02:56.448Z,49.73
2018-04-02T07:05:22.785Z,50.07
2018-04-02T07:07:48.925Z,47.37
2018-04-02T07:10:15.700Z,50.17
2018-04-02T07:12:42.696Z,48.77
2018-04-02T07:15:08.921Z,45.90
2018-04-02T07:17:35.098Z,44.67
2018-04-02T07:20:01.274Z,44.43
2018-04-02T07:22:27.556Z,41.90
2018-04-02T07:24:53.697Z,42.77
2018-04-02T07:27:19.827Z,41.13
2018-04-02T07:29:46.032Z,45.40
2018-04-02T07:32:12.211Z,41.83
2018-04-02T07:34:38.432Z,41.50
2018-04-02T07:37:04.644Z,41.93
2018-04-02T07:39:30.892Z,41.00
2018-04-02T07:41:57.155Z,38.90
2018-04-02T07:44:24.943Z,38.27
2018-04-02T07:46:57.572Z,39.03
2018-04-02T07:49:28.774Z,39.03
2018-04-02T07:51:56.664Z,39.37
2018-04-02T07:54:28.172Z,36.33
2018-04-02T07:56:58.385Z,36.00
2018-04-02T07:59:27.954Z,33.63
2018-04-02T08:01:57.389Z,37.90
2018-04-02T08:04:28.019Z,35.03
2018-04-02T08:06:54.695Z,35.13
2018-04-02T08:09:26.966Z,32.40
2018-04-02T08:11:54.147Z,32.53
2018-04-02T08:14:27.067Z,30.00
2018-04-02T08:16:57.240Z,30.83
2018-04-02T08:19:24.148Z,30.77
2018-04-02T08:21:50.274Z,31.70
2018-04-02T08:24:16.471Z,33.67
2018-04-02T08:26:43.429Z,28.97
2018-04-02T08:29:09.651Z,27.83
2018-04-02T08:31:37.082Z,28.23
2018-04-02T08:36:58.279Z,28.80
2018-04-02T08:39:24.664Z,26.37
2018-04-02T08:41:50.890Z,27.93
2018-04-02T08:44:27.294Z,27.07
2018-04-02T08:46:54.315Z,27.33
2018-04-02T08:49:20.479Z,26.90
2018-04-02T08:51:56.691Z,24.03
2018-04-02T08:54:29.081Z,26.13
2018-04-02T08:56:55.247Z,24.90
2018-04-02T08:59:21.374Z,22.80
2018-04-02T09:01:47.512Z,19.93
2018-04-02T09:04:13.675Z,22.90
2018-04-02T09:06:40.522Z,22.70
2018-04-02T09:09:06.663Z,23.67
2018-04-02T09:11:33.012Z,22.37
2018-04-02T09:13:59.935Z,21.07
2018-04-02T09:16:26.072Z,21.70
2018-04-02T09:18:52.271Z,23.90
2018-04-02T09:21:19.231Z,24.13
2018-04-02T09:23:45.475Z,22.20
2018-04-02T09:26:11.872Z,23.10
2018-04-02T09:28:38.062Z,25.57
2018-04-02T09:31:04.266Z,19.77
2018-04-02T09:45:26.726Z,17.60
2018-04-02T09:47:54.104Z,17.70
2018-04-02T09:50:21.419Z,19.23
2018-04-02T09:52:47.639Z,20.03
2018-04-02T09:55:14.157Z,17.27
2018-04-02T09:57:40.242Z,15.80
2018-04-02T10:00:06.449Z,16.67
2018-04-02T10:02:35.497Z,17.10
2018-04-02T10:05:01.751Z,14.67
2018-04-02T10:07:28.035Z,14.80
2018-04-02T10:09:58.186Z,14.57
2018-04-02T10:12:24.571Z,12.17
2018-04-02T10:14:50.790Z,13.83
2018-04-02T10:17:16.898Z,10.90
2018-04-02T10:19:43.864Z,11.43
2018-04-02T10:22:10.769Z,10.10
2018-04-02T10:24:36.931Z,8.50
2018-04-02T10:27:03.974Z,8.73
2018-04-02T10:29:30.103Z,8.20
2018-04-02T10:31:56.221Z,7.20
2018-04-02T10:34:23.346Z,7.80
2018-04-02T10:36:49.434Z,7.33
2018-04-02T10:39:15.563Z,7.73
2018-04-02T10:41:41.747Z,6.37
2018-04-02T10:44:07.854Z,6.87
2018-04-02T10:46:34.235Z,7.67
2018-04-02T10:49:00.343Z,6.23
2018-04-02T10:51:26.430Z,7.00
2018-04-02T10:53:52.593Z,6.07
2018-04-02T10:56:18.743Z,7.47
2018-04-02T10:58:44.838Z,6.43
2018-04-02T11:01:11.406Z,6.20
2018-04-02T11:03:38.538Z,6.27
2018-04-02T11:06:05.011Z,6.47
2018-04-02T11:08:31.186Z,6.30
2018-04-02T11:10:57.313Z,6.10
2018-04-02T11:13:23.436Z,6.70
2018-04-02T11:15:50.295Z,7.13
2018-04-02T11:18:17.137Z,7.00
2018-04-02T11:20:43.239Z,6.90
2018-04-02T11:23:09.334Z,7.27
2018-04-02T11:25:36.206Z,7.17
2018-04-02T11:28:02.367Z,7.60
2018-04-02T11:30:28.497Z,6.53
2018-04-02T11:32:54.871Z,7.23
2018-04-02T11:35:21.070Z,6.40
2018-04-02T11:37:47.178Z,6.70
2018-04-02T11:40:13.286Z,7.57
2018-04-02T11:42:39.542Z,7.07
2018-04-02T11:45:06.522Z,7.93
2018-04-02T11:47:32.638Z,8.13
2018-04-02T11:49:58.778Z,6.87
2018-04-02T11:52:24.894Z,7.70
2018-04-02T11:54:51.070Z,7.53
2018-04-02T11:57:17.190Z,8.40
2018-04-02T11:59:43.254Z,7.77
2018-04-02T12:02:09.500Z,8.10
2018-04-02T12:04:35.677Z,8.10
2018-04-02T12:07:01.799Z,7.50
2018-04-02T12:09:28.204Z,7.33
2018-04-02T12:11:54.485Z,6.93
2018-04-02T12:14:20.598Z,8.00
2018-04-02T12:16:47.467Z,7.73
2018-04-02T12:19:14.318Z,7.20
2018-04-02T12:21:41.499Z,7.30
2018-04-02T12:24:07.598Z,7.53
2018-04-02T12:26:33.738Z,8.47
2018-04-02T12:28:59.858Z,6.10
2018-04-02T12:31:25.971Z,6.90
2018-04-02T12:33:52.306Z,8.43
2018-04-02T12:36:18.436Z,6.43
2018-04-02T12:38:44.547Z,5.80
2018-04-02T12:41:11.059Z,6.80
2018-04-02T12:43:37.168Z,6.40
2018-04-02T12:46:03.302Z,6.80
2018-04-02T12:48:29.486Z,5.37
2018-04-02T12:50:55.558Z,7.37
2018-04-02T12:53:22.386Z,6.00
2018-04-02T12:55:48.462Z,7.20
2018-04-02T12:58:15.311Z,5.30
2018-04-02T13:00:42.126Z,5.47
2018-04-02T13:03:08.232Z,3.97
2018-04-02T13:05:34.352Z,4.03
2018-04-02T13:08:00.463Z,10.47
2018-04-02T13:10:26.577Z,5.87
2018-04-02T13:12:52.751Z,5.30
2018-04-02T13:15:19.199Z,4.47
2018-04-02T13:17:45.683Z,3.83
2018-04-02T13:20:12.290Z,4.17
2018-04-02T13:22:38.584Z,4.43
2018-04-02T13:25:10.639Z,3.90
2018-04-02T13:27:36.926Z,4.67
2018-04-02T13:30:03.473Z,2.93
2018-04-02T13:32:29.582Z,4.87
2018-04-02T13:34:56.145Z,3.73
2018-04-02T13:40:20.855Z,3.47
2018-04-02T13:42:46.982Z,4.50
2018-04-02T13:45:15.461Z,7.13
2018-04-02T13:47:42.043Z,3.23
2018-04-02T13:50:14.978Z,5.67
2018-04-02T13:52:42.032Z,5.57
2018-04-02T13:55:15.236Z,3.90
2018-04-02T13:57:41.380Z,5.10
2018-04-02T14:00:07.490Z,4.40
2018-04-02T14:02:33.694Z,4.63
2018-04-02T14:04:59.865Z,5.90
2018-04-02T14:07:26.127Z,3.20
2018-04-02T14:09:52.308Z,3.40
2018-04-02T14:12:18.715Z,2.80
2018-04-02T14:14:48.435Z,2.90
2018-04-02T14:19:54.706Z,2.70
2018-04-02T14:22:21.057Z,3.50
2018-04-02T14:24:48.171Z,2.73
2018-04-02T14:27:14.249Z,2.80
2018-04-02T14:29:40.491Z,3.17
2018-04-02T14:32:06.690Z,3.10
2018-04-02T14:34:33.296Z,2.70
2018-04-02T14:37:00.946Z,2.60
2018-04-02T14:39:27.059Z,2.40
2018-04-02T14:41:53.538Z,1.90
2018-04-02T14:44:19.647Z,2.07
2018-04-02T14:46:45.738Z,2.07
2018-04-02T14:49:11.842Z,2.30
2018-04-02T14:51:38.363Z,2.30
2018-04-02T14:54:05.038Z,2.23
2018-04-02T14:56:32.381Z,2.17
2018-04-02T14:58:58.833Z,2.80
2018-04-02T15:01:25.772Z,2.00
2018-04-02T15:03:51.950Z,2.40
2018-04-02T15:06:18.067Z,2.00
2018-04-02T15:33:06.988Z,2.77
2018-04-02T15:35:33.601Z,2.97
2018-04-02T15:37:59.995Z,2.70
2018-04-02T15:40:26.647Z,13.40
2018-04-02T15:42:52.786Z,2.60
2018-04-02T15:45:18.938Z,7.47
2018-04-02T15:47:46.024Z,6.20
2018-04-02T15:50:12.171Z,4.50
2018-04-02T15:52:38.326Z,4.63
2018-04-02T15:55:04.459Z,4.27
2018-04-02T15:57:31.405Z,4.50
2018-04-02T15:59:57.568Z,4.20
2018-04-02T16:02:24.598Z,4.03
2018-04-02T16:04:50.767Z,5.13
2018-04-02T16:07:16.920Z,4.40
2018-04-02T16:09:43.059Z,3.60
2018-04-02T16:12:11.349Z,5.30
2018-04-02T16:17:27.217Z,6.83
2018-04-02T16:19:53.363Z,4.10
2018-04-02T16:22:19.584Z,3.37
2018-04-02T16:24:45.742Z,3.43
2018-04-02T16:27:12.127Z,3.30
2018-04-02T16:29:39.059Z,3.77
2018-04-02T16:32:05.292Z,3.60
2018-04-02T16:34:31.627Z,5.30
2018-04-02T16:36:57.801Z,7.53
2018-04-02T16:39:26.484Z,12.37
2018-04-02T16:41:53.648Z,15.73
2018-04-02T16:44:19.908Z,20.70
2018-04-02T16:46:47.029Z,21.60
2018-04-02T18:29:36.651Z,3.97
2018-04-02T18:56:30.726Z,4.97
2018-04-02T18:58:57.622Z,5.23
2018-04-02T19:01:23.850Z,4.57
2018-04-02T19:03:49.983Z,6.40
2018-04-02T19:06:16.103Z,4.70
2018-04-02T19:08:43.127Z,5.07
2018-04-02T19:11:09.720Z,5.07
2018-04-02T19:13:36.590Z,6.13
2018-04-02T19:16:02.715Z,7.70
2018-04-02T19:18:29.600Z,4.97
2018-04-02T19:20:55.730Z,5.37
2018-04-02T19:23:21.847Z,6.93
2018-04-02T19:25:48.015Z,4.73
2018-04-02T19:28:14.140Z,7.10
2018-04-02T19:30:40.396Z,5.27
2018-04-02T19:33:06.942Z,5.93
2018-04-02T19:35:33.171Z,5.90
2018-04-02T19:37:59.483Z,5.30
2018-04-02T19:40:26.316Z,4.93
2018-04-02T19:42:53.229Z,5.03
2018-04-02T19:45:19.460Z,5.10
2018-04-02T19:47:45.685Z,5.50
2018-04-02T19:50:12.813Z,4.90
2018-04-02T19:52:39.358Z,6.13
2018-04-02T19:55:05.463Z,5.97
2018-04-02T19:57:31.608Z,5.60
2018-04-02T19:59:58.274Z,6.43
2018-04-02T20:02:24.401Z,6.43
2018-04-02T20:04:50.569Z,7.10
2018-04-02T20:07:16.859Z,5.50
2018-04-02T20:09:43.102Z,5.33
2018-04-02T20:12:09.536Z,5.57
2018-04-02T20:14:36.511Z,5.03
2018-04-02T20:17:02.628Z,5.47
2018-04-02T20:19:29.760Z,6.10
2018-04-02T20:21:56.001Z,5.30
2018-04-02T20:24:22.449Z,4.80
2018-04-02T20:26:48.656Z,5.67
2018-04-02T20:29:15.072Z,4.80
2018-04-02T20:31:41.224Z,5.20
2018-04-02T20:34:07.404Z,4.63
2018-04-02T20:36:33.527Z,5.50
2018-04-02T20:38:59.602Z,5.13
2018-04-02T20:41:25.725Z,5.00
2018-04-02T20:43:51.851Z,5.63
2018-04-02T20:46:17.970Z,5.53
2018-04-02T20:48:44.258Z,5.27
2018-04-02T20:51:11.153Z,5.67
2018-04-02T20:53:37.352Z,4.80
2018-04-02T20:56:03.474Z,5.60
2018-04-02T20:58:30.339Z,5.67
2018-04-02T21:00:56.489Z,5.13
2018-04-02T21:03:22.699Z,4.90
2018-04-02T21:05:48.812Z,4.60
2018-04-02T21:08:14.947Z,4.20
2018-04-02T21:10:41.150Z,4.43
2018-04-02T21:13:07.308Z,4.20
2018-04-02T21:15:34.176Z,3.93
2018-04-02T21:18:01.298Z,4.67
2018-04-02T21:20:27.472Z,4.90
2018-04-02T21:22:53.619Z,4.80
2018-04-02T21:25:20.645Z,3.93
2018-04-02T21:27:46.863Z,4.70
2018-04-02T21:30:12.994Z,4.60
2018-04-02T21:32:39.087Z,4.10
2018-04-02T21:35:05.270Z,4.20
2018-04-02T21:37:31.379Z,4.43
2018-04-02T21:40:11.966Z,4.03
2018-04-02T21:42:38.272Z,3.33
2018-04-02T21:45:04.400Z,3.80
2018-04-02T21:47:30.541Z,3.70
2018-04-02T21:49:56.638Z,3.27
2018-04-02T21:52:23.495Z,3.37
2018-04-02T21:54:50.359Z,3.90
2018-04-02T21:57:16.819Z,3.43
2018-04-02T21:59:43.638Z,3.43
2018-04-02T22:02:10.004Z,3.80
2018-04-02T22:04:36.112Z,4.90
2018-04-02T22:07:04.133Z,3.07
2018-04-02T22:09:30.502Z,3.13
2018-04-02T22:11:56.622Z,3.10
2018-04-02T22:14:22.748Z,3.33
2018-04-02T22:16:48.912Z,3.03
2018-04-02T22:19:15.148Z,2.37
2018-04-02T22:21:42.434Z,2.93
2018-04-02T22:24:09.006Z,3.10
2018-04-02T22:26:35.851Z,3.30
2018-04-02T22:29:02.707Z,2.90
2018-04-02T22:31:29.594Z,3.27
2018-04-02T22:33:55.707Z,3.73
2018-04-02T22:36:21.898Z,3.20
2018-04-02T22:38:48.008Z,3.47
2018-04-02T22:41:14.138Z,3.10
2018-04-02T22:43:40.292Z,3.57
2018-04-02T22:46:06.439Z,4.30
2018-04-02T22:48:32.518Z,2.77
2018-04-02T22:50:58.649Z,3.60
2018-04-02T22:53:24.746Z,2.97
2018-04-02T22:55:50.848Z,3.80
2018-04-02T22:58:16.958Z,3.23
2018-04-02T23:00:43.119Z,3.20
2018-04-02T23:03:09.244Z,2.70
2018-04-02T23:05:35.389Z,3.00
2018-04-02T23:08:01.516Z,3.30
2018-04-02T23:10:27.752Z,3.27
2018-04-02T23:12:53.845Z,2.80
2018-04-02T23:15:19.931Z,2.53
2018-04-02T23:17:46.040Z,3.00
2018-04-02T23:20:12.154Z,2.90
2018-04-02T23:22:51.270Z,2.37
2018-04-02T23:25:17.370Z,3.10
2018-04-02T23:27:43.466Z,2.57
2018-04-02T23:30:10.363Z,2.67
2018-04-02T23:32:36.495Z,3.60
2018-04-02T23:35:02.620Z,3.10
2018-04-02T23:37:28.717Z,3.13
2018-04-02T23:39:54.828Z,3.70
2018-04-02T23:42:20.939Z,3.20
2018-04-02T23:44:47.062Z,3.13
2018-04-02T23:47:13.185Z,2.50
2018-04-02T23:49:40.035Z,3.20
2018-04-02T23:52:06.144Z,3.30
2018-04-02T23:54:32.223Z,3.60
2018-04-02T23:56:59.074Z,3.10
2018-04-02T23:59:25.182Z,3.20
